Time;durP1;ratioP1;P1;durP2;ratioP2;P2;SDS_P1;SDS_P2;PMS_P1;PMS_P2;Temp;Humidity;BMP_temperature;BMP_pressure;BME280_temperature;BME280_humidity;BME280_pressure;Samples;Min_cycle;Max_cycle;Signal;HPM_P1;HPM_P2
2022/09/15 00:01:40;;;;;;;6.70;2.90;;;;;;;16.19;75.29;98637.44;25113;1315;3026634;-60
2022/09/15 00:04:09;;;;;;;6.40;3.00;;;;;;;16.16;75.17;98638.33;25089;1313;3026849;-63
2022/09/15 00:06:39;;;;;;;6.00;3.10;;;;;;;15.91;76.08;98636.60;25143;1313;3051989;-60
2022/09/15 00:09:08;;;;;;;5.20;2.90;;;;;;;15.80;76.13;98644.02;25061;1313;3026625;-60
2022/09/15 00:11:38;;;;;;;5.10;3.10;;;;;;;15.52;77.28;98635.70;25096;1315;3051724;-59
2022/09/15 00:14:07;;;;;;;3.40;2.20;;;;;;;15.31;78.70;98644.59;25138;1313;3027255;-61
2022/09/15 00:16:36;;;;;;;3.30;2.30;;;;;;;15.64;78.34;98646.22;25046;1315;3027378;-60
2022/09/15 00:19:05;;;;;;;3.80;2.70;;;;;;;16.07;76.52;98647.80;25112;1313;3026854;-63
2022/09/15 00:21:38;;;;;;;4.50;3.10;;;;;;;15.95;76.35;98650.55;25072;1318;3054569;-62
2022/09/15 00:24:08;;;;;;;5.10;2.90;;;;;;;15.72;77.23;98655.52;25065;1315;3026333;-62
2022/09/15 00:26:37;;;;;;;3.90;2.70;;;;;;;15.40;78.97;98658.37;25088;1313;3026051;-62
2022/09/15 00:29:09;;;;;;;2.50;1.70;;;;;;;15.33;79.31;98657.61;25035;1313;3027199;-61
2022/09/15 00:31:38;;;;;;;4.80;2.10;;;;;;;15.88;78.07;98656.19;25074;1313;3027338;-61
2022/09/15 00:34:10;;;;;;;4.80;3.10;;;;;;;16.26;76.03;98656.09;25100;1313;3026592;-60
2022/09/15 00:36:39;;;;;;;10.40;3.00;;;;;;;16.17;75.92;98656.76;25061;1315;3049868;-63
2022/09/15 00:39:08;;;;;;;4.80;2.80;;;;;;;15.98;76.67;98652.40;25075;1313;3026176;-60
2022/09/15 00:41:39;;;;;;;4.70;3.10;;;;;;;15.82;76.98;98655.14;25048;1315;3057374;-60
2022/09/15 00:44:47;;;;;;;5.70;1.80;;;;;;;15.73;77.49;98654.00;25037;1315;3026281;-61
2022/09/15 02:37:27;;;;;;;17.20;8.00;;;;;;;14.00;99.78;98597.13;31598;1319;3025741;-64
2022/09/15 02:39:57;;;;;;;10.60;5.20;;;;;;;15.11;96.02;98590.78;24992;1319;3026942;-64
2022/09/15 02:42:28;;;;;;;9.60;4.90;;;;;;;15.77;89.47;98589.70;24989;1318;3026734;-64
2022/09/15 02:44:57;;;;;;;14.20;5.20;;;;;;;15.96;87.65;98589.52;24970;1319;3050845;-63
2022/09/15 02:47:30;;;;;;;10.20;3.60;;;;;;;15.76;87.10;98588.92;25005;1318;3026134;-63
2022/09/15 02:49:57;;;;;;;10.20;3.60;;;;;;;15.81;87.42;98588.99;24034;1319;5001788;-63
2022/09/15 02:52:26;;;;;;;15.40;6.60;;;;;;;16.19;85.29;98592.43;25048;1316;3026655;-62
2022/09/15 02:54:55;;;;;;;19.40;7.30;;;;;;;16.37;83.29;98591.36;25073;1316;3026267;-60
2022/09/15 02:57:24;;;;;;;15.40;6.60;;;;;;;16.17;84.13;98591.06;25042;1319;3071149;-61
2022/09/15 03:00:12;;;;;;;16.80;6.10;;;;;;;15.99;84.74;98589.63;25092;1316;3029066;-58
2022/09/15 03:02:44;;;;;;;12.90;5.80;;;;;;;16.32;83.80;98584.40;25077;1318;3054664;-61
2022/09/15 03:05:13;;;;;;;16.80;6.70;;;;;;;16.67;81.94;98583.47;25112;1313;3028089;-61
2022/09/15 03:07:43;;;;;;;16.40;6.00;;;;;;;16.52;82.06;98586.71;25081;1313;3026753;-59
2022/09/15 03:10:15;;;;;;;19.80;6.90;;;;;;;16.27;82.86;98587.92;25073;1313;3026824;-63
2022/09/15 03:12:47;;;;;;;12.80;4.60;;;;;;;16.09;83.79;98588.24;25107;1313;3026445;-61
2022/09/15 03:15:18;;;;;;;13.80;5.10;;;;;;;16.43;82.92;98587.77;25124;1313;3027249;-62
2022/09/15 03:17:48;;;;;;;14.50;5.00;;;;;;;16.72;81.28;98588.33;25079;1316;3028283;-65
2022/09/15 03:20:22;;;;;;;8.50;4.10;;;;;;;16.60;80.93;98589.47;25104;1313;3026550;-63
2022/09/15 03:22:51;;;;;;;;;;;;;;;16.32;82.43;98589.54;25084;1313;3054300;-59
2022/09/15 03:25:20;;;;;;;6.80;3.70;;;;;;;16.05;83.70;98594.86;25068;1313;3026853;-62
2022/09/15 03:27:49;;;;;;;6.80;2.80;;;;;;;15.90;84.65;98593.67;25191;1313;3049605;-65
2022/09/15 03:30:18;;;;;;;6.70;3.50;;;;;;;16.29;83.68;98585.33;25049;1316;3027443;-64
2022/09/15 03:32:47;;;;;;;10.30;3.80;;;;;;;16.67;81.63;98582.77;25102;1313;3069389;-58
2022/09/15 03:35:17;;;;;;;6.20;3.40;;;;;;;16.58;81.39;98583.42;25034;1316;3026761;-63
2022/09/15 03:37:46;;;;;;;6.30;3.20;;;;;;;16.40;81.59;98585.02;25104;1313;3026836;-64
2022/09/15 03:40:16;;;;;;;5.80;3.10;;;;;;;16.22;82.21;98591.75;25016;1315;3070911;-61
2022/09/15 03:42:45;;;;;;;4.20;2.30;;;;;;;16.24;82.32;98596.67;25106;1316;3026213;-59
2022/09/15 03:45:14;;;;;;;5.20;2.90;;;;;;;16.72;80.88;98597.44;25073;1313;3026947;-62
2022/09/15 03:47:43;;;;;;;7.70;3.20;;;;;;;16.70;80.61;98607.15;25023;1316;3070539;-59
2022/09/15 03:50:12;;;;;;;6.40;3.10;;;;;;;16.90;79.76;98610.41;25067;1316;3026680;-63
2022/09/15 03:52:41;;;;;;;7.60;3.00;;;;;;;16.78;79.60;98605.90;25264;1315;3049533;-59
2022/09/15 03:55:10;;;;;;;4.60;2.40;;;;;;;16.56;80.17;98607.14;25178;1313;3026395;-62
2022/09/15 03:57:40;;;;;;;4.60;2.60;;;;;;;16.52;81.18;98595.43;25048;1313;3055435;-60
2022/09/15 04:00:10;;;;;;;5.30;3.20;;;;;;;16.72;80.81;98586.69;25078;1316;3026385;-60
2022/09/15 04:02:39;;;;;;;10.20;3.30;;;;;;;16.63;80.41;98580.81;25070;1316;3051565;-64
2022/09/15 04:05:08;;;;;;;5.10;3.30;;;;;;;16.57;80.66;98575.63;25041;1316;3026482;-62
2022/09/15 04:07:41;;;;;;;5.20;3.10;;;;;;;16.46;80.70;98572.92;25104;1316;3057215;-62
2022/09/15 04:10:10;;;;;;;5.60;2.10;;;;;;;16.21;82.45;98572.90;25081;1313;3026906;-61
2022/09/15 04:12:41;;;;;;;4.30;2.40;;;;;;;16.65;81.41;98568.11;25038;1316;3027147;-63
2022/09/15 04:15:10;;;;;;;6.30;3.30;;;;;;;17.06;79.28;98562.77;25150;1313;3026721;-60
2022/09/15 04:17:40;;;;;;;5.00;3.20;;;;;;;16.97;79.13;98565.45;25052;1313;3053649;-64
2022/09/15 04:20:09;;;;;;;8.30;3.60;;;;;;;16.85;79.06;98566.08;25260;1313;3026455;-59
2022/09/15 04:22:40;;;;;;;7.00;3.20;;;;;;;16.53;80.65;98570.03;25033;1313;3058679;-63
2022/09/15 04:25:09;;;;;;;4.80;2.50;;;;;;;16.35;81.73;98567.48;25074;1316;3028920;-59
2022/09/15 04:27:39;;;;;;;7.60;2.40;;;;;;;16.65;81.33;98564.02;25062;1313;3055367;-62
2022/09/15 04:30:08;;;;;;;8.70;3.20;;;;;;;17.12;79.43;98562.21;25084;1316;3029491;-64
2022/09/15 04:32:38;;;;;;;4.00;2.80;;;;;;;16.87;79.57;98560.21;25100;1316;3053788;-63
2022/09/15 04:35:07;;;;;;;6.30;3.20;;;;;;;16.84;79.68;98569.75;25112;1316;3026271;-61
2022/09/15 04:37:37;;;;;;;7.70;3.70;;;;;;;16.55;80.78;98568.75;25075;1316;3049405;-61
2022/09/15 04:40:08;;;;;;;7.10;4.00;;;;;;;16.46;81.76;98567.49;25100;1316;3026637;-62
2022/09/15 04:42:38;;;;;;;10.60;7.10;;;;;;;17.01;80.02;98556.23;25091;1316;3070066;-66
2022/09/15 04:45:07;;;;;;;13.90;9.40;;;;;;;17.23;78.46;98556.04;25151;1316;3026629;-61
2022/09/15 04:47:37;;;;;;;7.30;5.60;;;;;;;17.06;78.75;98556.73;25057;1316;3053154;-59
2022/09/15 04:50:06;;;;;;;12.50;6.00;;;;;;;16.79;80.07;98552.39;25112;1316;3026181;-60
2022/09/15 04:52:35;;;;;;;16.50;4.90;;;;;;;16.62;80.79;98554.64;25146;1316;3053688;-60
2022/09/15 04:55:04;;;;;;;6.10;2.80;;;;;;;16.39;81.94;98555.10;25076;1316;3026557;-60
2022/09/15 04:57:33;;;;;;;8.70;3.40;;;;;;;16.80;80.89;98544.13;25072;1316;3052104;-64
2022/09/15 05:00:05;;;;;;;9.10;4.50;;;;;;;17.12;79.30;98551.56;25086;1316;3026853;-62
2022/09/15 05:02:35;;;;;;;9.80;3.90;;;;;;;17.15;79.12;98557.27;25086;1316;3055112;-64
2022/09/15 05:05:04;;;;;;;8.50;4.70;;;;;;;16.94;79.79;98557.55;25122;1316;3026333;-64
2022/09/15 05:07:33;;;;;;;6.80;4.70;;;;;;;16.64;81.42;98559.67;25015;1316;3027733;-64
2022/09/15 05:10:02;;;;;;;7.10;3.50;;;;;;;16.81;81.22;98556.81;25123;1316;3026255;-63
2022/09/15 05:12:31;;;;;;;12.40;4.00;;;;;;;17.23;79.88;98550.92;25078;1316;3051671;-62
2022/09/15 05:15:02;;;;;;;10.00;4.60;;;;;;;17.47;78.80;98548.98;25094;1316;3026807;-65
2022/09/15 05:17:31;;;;;;;8.70;4.00;;;;;;;17.63;78.27;98557.46;25036;1316;3058721;-59
2022/09/15 05:20:01;;;;;;;7.40;3.90;;;;;;;17.65;77.38;98561.17;25062;1315;3026742;-62
2022/09/15 05:22:30;;;;;;;6.70;3.70;;;;;;;17.32;79.29;98568.45;25136;1314;3026451;-63
2022/09/15 05:24:59;;;;;;;5.00;2.40;;;;;;;17.16;80.12;98561.96;25097;1316;3026806;-63
2022/09/15 05:27:31;;;;;;;6.70;2.90;;;;;;;17.51;79.27;98558.48;25124;1316;3051880;-64
2022/09/15 05:30:00;;;;;;;6.00;2.90;;;;;;;17.85;78.13;98553.58;25094;1319;3027526;-66
2022/09/15 05:32:29;;;;;;;6.20;3.40;;;;;;;17.87;78.26;98556.95;25082;1316;3027218;-65
2022/09/15 05:34:58;;;;;;;4.80;2.90;;;;;;;17.80;78.31;98547.90;25066;1316;3048722;-62
2022/09/15 05:37:27;;;;;;;7.30;3.00;;;;;;;17.53;79.77;98547.35;25142;1316;3026528;-61
2022/09/15 05:39:58;;;;;;;4.60;2.10;;;;;;;17.67;79.33;98545.50;25069;1313;3026542;-62
2022/09/15 05:42:28;;;;;;;7.80;2.80;;;;;;;18.00;78.54;98539.83;25070;1319;3052183;-62
2022/09/15 05:44:57;;;;;;;10.10;3.40;;;;;;;18.25;77.12;98539.59;25112;1319;3026463;-64
2022/09/15 05:47:26;;;;;;;8.80;2.90;;;;;;;18.37;76.73;98543.83;25057;1319;3026561;-61
2022/09/15 05:49:56;;;;;;;6.00;3.40;;;;;;;18.26;77.04;98551.80;25131;1313;3051325;-64
2022/09/15 05:52:24;;;;;;;8.30;3.50;;;;;;;18.06;78.28;98557.58;25074;1313;3026456;-62
2022/09/15 05:54:53;;;;;;;7.20;2.50;;;;;;;17.99;78.79;98555.71;25137;1313;3056507;-60
2022/09/15 05:57:23;;;;;;;5.20;2.40;;;;;;;18.48;77.81;98566.23;25047;1313;3026594;-61
2022/09/15 05:59:52;;;;;;;8.70;4.80;;;;;;;18.77;76.02;98571.75;25105;1313;3054564;-63
2022/09/15 06:02:21;;;;;;;8.00;4.00;;;;;;;18.75;76.15;98570.55;25072;1313;3026399;-63
2022/09/15 06:04:50;;;;;;;18.00;6.60;;;;;;;18.69;76.08;98570.95;25127;1313;3052202;-60
2022/09/15 06:07:19;;;;;;;8.60;3.60;;;;;;;18.43;77.49;98569.81;25065;1313;3026643;-60
2022/09/15 06:09:49;;;;;;;7.90;2.60;;;;;;;18.38;77.85;98562.57;25075;1313;3027136;-62
2022/09/15 06:12:18;;;;;;;9.90;3.20;;;;;;;18.85;76.67;98558.02;25099;1313;3026376;-60
2022/09/15 06:14:49;;;;;;;7.80;3.10;;;;;;;19.30;74.94;98548.94;25076;1313;3054633;-62
2022/09/15 06:17:23;;;;;;;9.00;3.10;;;;;;;19.19;75.13;98555.72;25052;1313;3059466;-62
2022/09/15 06:19:53;;;;;;;11.20;3.30;;;;;;;19.24;75.15;98544.51;25109;1319;3026585;-61
2022/09/15 06:22:25;;;;;;;13.40;3.20;;;;;;;19.07;75.80;98545.31;25140;1313;3029831;-62
2022/09/15 06:24:55;;;;;;;4.80;1.80;;;;;;;19.03;76.02;98540.60;25048;1317;3026687;-63
2022/09/15 06:27:24;;;;;;;8.50;2.40;;;;;;;19.53;74.71;98536.55;25104;1313;3026763;-60
2022/09/15 06:29:53;;;;;;;12.10;2.70;;;;;;;19.89;73.59;98536.41;25112;1313;3056120;-61
2022/09/15 06:32:22;;;;;;;7.10;3.50;;;;;;;19.92;73.20;98535.66;25074;1319;3026645;-60
2022/09/15 06:34:51;;;;;;;9.10;3.10;;;;;;;19.80;73.95;98533.84;25154;1313;3048043;-63
2022/09/15 06:37:20;;;;;;;14.80;3.60;;;;;;;19.67;74.34;98537.01;25073;1313;3026891;-62
2022/09/15 06:39:49;;;;;;;9.50;2.90;;;;;;;19.49;75.27;98540.45;25112;1313;3058128;-61
2022/09/15 06:42:19;;;;;;;6.80;1.90;;;;;;;19.40;75.40;98539.71;25029;1313;3027796;-62
2022/09/15 06:44:49;;;;;;;7.70;2.70;;;;;;;19.91;74.37;98539.08;25060;1313;3026829;-62
2022/09/15 06:47:18;;;;;;;9.50;3.00;;;;;;;20.43;72.63;98540.97;25091;1313;3026061;-63
2022/09/15 06:49:47;;;;;;;14.70;3.70;;;;;;;20.36;72.41;98544.16;25103;1313;3051532;-63
2022/09/15 06:52:16;;;;;;;8.10;3.40;;;;;;;20.38;72.42;98545.43;25080;1313;3026469;-62
2022/09/15 06:54:45;;;;;;;9.40;3.10;;;;;;;20.26;72.58;98552.36;25085;1313;3058477;-62
2022/09/15 06:57:14;;;;;;;10.20;3.20;;;;;;;20.07;73.29;98557.05;25070;1313;3026441;-60
2022/09/15 06:59:43;;;;;;;4.70;1.90;;;;;;;19.94;74.15;98555.01;25065;1313;3054411;-60
2022/09/15 07:02:14;;;;;;;6.50;2.40;;;;;;;20.36;72.67;98563.45;25117;1313;3026781;-63
2022/09/15 07:04:43;;;;;;;8.10;2.70;;;;;;;20.75;71.13;98559.73;25053;1313;3026357;-62
2022/09/15 07:07:12;;;;;;;6.20;2.60;;;;;;;20.81;71.01;98557.29;25055;1313;3026450;-59
2022/09/15 07:09:43;;;;;;;7.40;3.10;;;;;;;20.78;71.01;98559.33;25012;1319;3057259;-61
2022/09/15 07:12:12;;;;;;;7.90;2.60;;;;;;;20.55;72.00;98562.61;25075;1313;3026907;-61
2022/09/15 07:14:41;;;;;;;7.60;2.60;;;;;;;20.33;72.27;98568.08;25107;1313;3026961;-61
2022/09/15 07:17:10;;;;;;;8.00;2.60;;;;;;;20.28;73.03;98570.12;25079;1312;3055871;-61
2022/09/15 07:19:40;;;;;;;8.20;1.80;;;;;;;20.23;73.08;98563.19;25107;1313;3026243;-59
2022/09/15 07:22:10;;;;;;;6.90;2.50;;;;;;;20.88;71.05;98557.08;25105;1313;3054225;-59
2022/09/15 07:24:40;;;;;;;4.40;2.40;;;;;;;21.46;68.61;98555.27;25108;1313;3026717;-59
2022/09/15 07:27:09;;;;;;;5.20;2.00;;;;;;;21.40;68.60;98553.86;25063;1313;3028867;-64
2022/09/15 07:29:38;;;;;;;7.90;2.60;;;;;;;21.26;68.83;98553.39;25130;1313;3052026;-59
2022/09/15 07:32:07;;;;;;;4.90;2.30;;;;;;;21.10;69.83;98545.77;25033;1313;3027205;-60
2022/09/15 07:34:36;;;;;;;12.20;3.50;;;;;;;21.17;69.93;98545.24;25071;1313;3054516;-60
2022/09/15 07:37:06;;;;;;;9.20;2.60;;;;;;;21.18;70.67;98538.45;25148;1313;3026371;-59
2022/09/15 07:39:35;;;;;;;5.10;2.10;;;;;;;21.21;70.55;98531.00;25068;1313;3051363;-60
2022/09/15 07:42:04;;;;;;;7.30;2.30;;;;;;;21.63;67.67;98532.18;25135;1316;3026508;-63
2022/09/15 07:44:33;;;;;;;5.60;2.50;;;;;;;21.96;66.38;98530.50;25020;1316;3070817;-59
2022/09/15 07:47:02;;;;;;;9.90;2.80;;;;;;;22.01;65.94;98536.20;25096;1313;3026801;-61
2022/09/15 07:49:31;;;;;;;5.70;2.90;;;;;;;21.94;66.29;98526.74;25051;1313;3053839;-62
2022/09/15 07:52:00;;;;;;;6.30;2.40;;;;;;;21.86;66.68;98520.98;25186;1313;3026416;-61
2022/09/15 07:54:29;;;;;;;6.20;2.40;;;;;;;21.78;66.87;98520.27;25159;1313;3052635;-60
2022/09/15 07:56:58;;;;;;;9.50;2.90;;;;;;;21.81;66.90;98522.36;25076;1313;3026630;-63
2022/09/15 07:59:28;;;;;;;5.50;2.60;;;;;;;21.56;67.28;98529.86;25081;1313;3054812;-60
2022/09/15 08:01:57;;;;;;;6.70;2.90;;;;;;;21.59;67.11;98527.89;25097;1316;3026913;-62
2022/09/15 08:04:26;;;;;;;11.10;3.30;;;;;;;21.57;67.61;98530.71;25071;1315;3057919;-60
2022/09/15 08:06:55;;;;;;;11.30;4.40;;;;;;;21.60;67.35;98524.55;25065;1315;3026922;-61
2022/09/15 08:09:24;;;;;;;13.90;3.40;;;;;;;21.50;67.33;98525.14;25079;1315;3027165;-60
2022/09/15 08:11:54;;;;;;;9.50;1.80;;;;;;;21.65;67.50;98518.09;25113;1315;3056796;-60
2022/09/15 08:14:25;;;;;;;9.40;2.10;;;;;;;22.44;64.10;98513.73;25076;1316;3027192;-63
2022/09/15 08:16:55;;;;;;;8.50;2.50;;;;;;;22.82;61.27;98507.33;25045;1316;3026347;-61
2022/09/15 08:19:28;;;;;;;9.60;2.70;;;;;;;22.93;60.55;98507.27;25082;1315;3025825;-61
2022/09/15 08:21:57;;;;;;;8.20;2.90;;;;;;;22.93;61.38;98502.89;25043;1313;3026210;-60
2022/09/15 08:24:27;;;;;;;12.80;3.30;;;;;;;22.78;61.18;98503.88;25097;1313;3026945;-63
2022/09/15 08:26:56;;;;;;;8.70;3.40;;;;;;;22.65;60.66;98505.39;25075;1313;3053765;-61
2022/09/15 08:29:25;;;;;;;10.50;3.70;;;;;;;22.55;60.58;98498.03;25166;1313;3026436;-60
2022/09/15 08:31:54;;;;;;;12.80;5.00;;;;;;;22.29;59.81;98497.16;25105;1313;3054923;-61
2022/09/15 08:34:23;;;;;;;18.70;5.50;;;;;;;22.11;60.21;98493.50;25091;1312;3026154;-60
2022/09/15 08:36:52;;;;;;;16.80;4.80;;;;;;;22.28;59.87;98483.87;25053;1313;3051724;-59
2022/09/15 08:39:21;;;;;;;7.80;3.60;;;;;;;22.42;59.85;98477.73;25137;1312;3026575;-62
2022/09/15 08:41:51;;;;;;;5.80;2.80;;;;;;;22.30;59.18;98478.77;25074;1313;3058462;-59
2022/09/15 08:44:29;;;;;;;14.40;3.90;;;;;;;22.30;58.12;98469.43;25039;1313;3026642;-60
2022/09/15 08:47:17;;;;;;;13.80;4.10;;;;;;;22.41;57.28;98464.20;25074;1313;3055981;-60
2022/09/15 08:50:21;;;;;;;9.40;3.40;;;;;;;22.51;57.57;98450.73;25127;1313;3051781;-60
2022/09/15 08:53:24;;;;;;;9.50;2.80;;;;;;;22.54;57.19;98449.27;25067;1313;3069027;-61
2022/09/15 08:55:54;;;;;;;11.50;3.30;;;;;;;22.64;57.23;98444.80;24994;1319;3052606;-59
2022/09/15 08:58:25;;;;;;;9.60;2.60;;;;;;;22.72;56.56;98442.74;25113;1313;3026483;-60
2022/09/15 09:01:33;;;;;;;5.90;2.20;;;;;;;22.79;55.42;98441.56;25064;1313;3026489;-61
2022/09/15 09:04:17;;;;;;;4.60;1.70;;;;;;;22.90;54.89;98431.98;24965;1319;3056242;-61
2022/09/15 09:06:55;;;;;;;5.40;2.20;;;;;;;23.03;54.29;98414.45;25028;1312;3048733;-61
2022/09/15 09:09:36;;;;;;;9.90;2.30;;;;;;;23.07;53.65;98408.66;25123;1313;3052823;-61
2022/09/15 09:12:20;;;;;;;4.40;1.80;;;;;;;23.05;53.61;98406.55;25177;1312;3054152;-61
2022/09/15 09:15:03;;;;;;;10.00;2.20;;;;;;;23.17;53.13;98402.73;25089;1315;3071694;-58
2022/09/15 09:17:55;;;;;;;8.50;2.40;;;;;;;23.09;51.71;98406.98;25033;1314;3050356;-59
2022/09/15 09:20:29;;;;;;;8.40;2.20;;;;;;;22.89;52.39;98405.60;25123;1312;3055065;-58
2022/09/15 09:23:00;;;;;;;5.90;2.20;;;;;;;22.78;53.84;98409.99;25073;1312;3051543;-61
2022/09/15 09:25:30;;;;;;;3.30;2.00;;;;;;;22.88;55.34;98405.39;25124;1312;3026515;-61
2022/09/15 09:28:00;;;;;;;4.80;2.20;;;;;;;22.88;54.46;98401.94;25055;1313;3026909;-60
2022/09/15 09:30:31;;;;;;;8.80;2.30;;;;;;;22.74;53.13;98399.48;25078;1313;3052687;-59
2022/09/15 09:33:27;;;;;;;10.60;2.40;;;;;;;22.67;53.89;98404.83;25111;1315;3026406;-60
2022/09/15 09:35:57;;;;;;;8.40;2.90;;;;;;;22.67;55.30;98400.88;25155;1311;3051374;-59
2022/09/15 09:38:37;;;;;;;9.30;2.70;;;;;;;22.65;55.73;98393.70;25036;1313;3026285;-58
2022/09/15 09:41:11;;;;;;;7.90;2.30;;;;;;;22.70;56.36;98387.51;25100;1313;3051095;-60
2022/09/15 09:43:41;;;;;;;4.70;2.30;;;;;;;22.68;55.31;98386.42;25128;1315;3068362;-59
2022/09/15 09:46:15;;;;;;;9.10;2.00;;;;;;;22.73;55.35;98379.98;25169;1313;3026576;-61
2022/09/15 09:48:48;;;;;;;5.30;2.00;;;;;;;22.71;54.75;98380.43;25140;1313;3055330;-58
2022/09/15 09:51:35;;;;;;;13.80;2.40;;;;;;;22.62;55.00;98386.68;25134;1310;3052740;-58
2022/09/15 09:54:19;;;;;;;5.90;2.20;;;;;;;22.54;55.69;98395.20;25119;1310;3058970;-64
2022/09/15 09:56:48;;;;;;;4.70;2.40;;;;;;;22.41;57.63;98393.63;25151;1310;3052634;-59
2022/09/15 09:59:40;;;;;;;11.30;2.80;;;;;;;22.33;58.73;98395.17;25161;1310;3027434;-67
2022/09/15 10:02:10;;;;;;;9.50;2.30;;;;;;;22.11;59.27;98399.93;25104;1312;3053610;-65
2022/09/15 10:05:05;;;;;;;9.70;2.70;;;;;;;21.81;61.56;98404.16;25168;1312;3071534;-65
2022/09/15 10:07:34;;;;;;;7.70;2.40;;;;;;;21.69;62.34;98396.97;25116;1313;3026321;-63
2022/09/15 10:10:04;;;;;;;8.80;2.40;;;;;;;21.53;62.17;98398.60;25089;1313;3026594;-70
2022/09/15 10:12:39;;;;;;;9.70;2.30;;;;;;;21.44;62.56;98395.46;25081;1313;3070237;-66
2022/09/15 10:15:20;;;;;;;7.20;2.40;;;;;;;21.44;62.33;98397.84;24993;1315;3050340;-66
2022/09/15 10:17:50;;;;;;;11.90;2.80;;;;;;;21.37;63.25;98396.35;25019;1318;3052431;-66
2022/09/15 10:20:34;;;;;;;7.90;2.80;;;;;;;21.29;63.20;98393.38;25001;1316;3026438;-62
2022/09/15 10:23:24;;;;;;;10.10;2.60;;;;;;;21.20;62.99;98398.24;25038;1316;3048788;-64
2022/09/15 10:25:57;;;;;;;9.60;3.10;;;;;;;21.16;64.98;98398.40;25084;1315;3055208;-67
2022/09/15 10:28:26;;;;;;;7.50;3.50;;;;;;;20.98;66.46;98398.23;25111;1315;3027062;-65
2022/09/15 10:31:14;;;;;;;7.20;3.10;;;;;;;20.86;65.34;98398.20;25097;1315;3026389;-66
2022/09/15 10:33:44;;;;;;;9.30;3.00;;;;;;;20.79;66.59;98393.58;25082;1316;3054541;-64
2022/09/15 10:36:16;;;;;;;10.20;3.10;;;;;;;20.74;67.82;98397.28;25094;1316;3026480;-66
2022/09/15 10:38:47;;;;;;;6.20;1.80;;;;;;;20.56;68.19;98394.91;25055;1317;3026187;-63
2022/09/15 10:41:27;;;;;;;8.10;2.80;;;;;;;20.90;66.94;98399.87;25033;1319;3026761;-63
2022/09/15 10:44:21;;;;;;;9.10;2.60;;;;;;;21.23;66.24;98399.30;25094;1318;3054256;-64
2022/09/15 10:47:14;;;;;;;4.80;2.30;;;;;;;21.24;67.20;98401.73;25091;1318;3051550;-63
2022/09/15 10:49:58;;;;;;;7.20;2.50;;;;;;;21.04;68.31;98408.01;25012;1316;3071112;-62
2022/09/15 10:52:49;;;;;;;10.80;3.40;;;;;;;20.78;69.91;98402.36;25011;1318;3051212;-61
2022/09/15 10:55:24;;;;;;;6.60;2.70;;;;;;;20.51;72.05;98401.52;25045;1316;3052119;-62
2022/09/15 10:58:41;;;;;;;5.40;1.90;;;;;;;20.41;73.52;98401.11;25091;1318;3053073;-65
2022/09/15 11:01:28;;;;;;;6.00;2.70;;;;;;;20.95;71.56;98395.01;24897;1321;3059090;-63
2022/09/15 11:04:10;;;;;;;5.70;2.40;;;;;;;21.21;70.75;98401.36;25085;1315;3050068;-62
2022/09/15 11:06:42;;;;;;;6.50;3.30;;;;;;;21.22;71.02;98399.62;25138;1315;3053743;-62
2022/09/15 11:09:44;;;;;;;9.10;3.30;;;;;;;21.05;72.65;98400.20;25135;1315;3026830;-63
2022/09/15 11:12:45;;;;;;;8.30;3.20;;;;;;;20.91;73.13;98389.66;24968;1315;3071710;-66
2022/09/15 11:15:25;;;;;;;9.20;3.00;;;;;;;20.78;74.05;98384.05;25054;1316;3054400;-65
2022/09/15 11:18:12;;;;;;;7.90;2.20;;;;;;;20.61;75.75;98374.59;25174;1315;3053650;-64
2022/09/15 11:21:11;;;;;;;8.70;2.70;;;;;;;21.31;73.45;98364.58;25072;1315;3055575;-64
2022/09/15 11:24:27;;;;;;;8.10;2.70;;;;;;;21.76;71.96;98360.44;25083;1316;3059028;-64
2022/09/15 11:27:22;;;;;;;8.20;2.90;;;;;;;21.56;72.24;98356.33;24986;1316;3049762;-63
2022/09/15 11:30:23;;;;;;;5.70;3.00;;;;;;;21.30;72.81;98355.65;25126;1316;3053949;-62
2022/09/15 11:33:26;;;;;;;11.20;3.50;;;;;;;21.07;74.06;98350.14;25060;1318;3051372;-65
2022/09/15 11:36:05;;;;;;;8.20;2.30;;;;;;;20.88;75.47;98343.23;25053;1316;3070197;-59
2022/09/15 11:38:41;;;;;;;5.50;2.40;;;;;;;21.44;74.01;98339.81;25093;1316;3050304;-61
2022/09/15 11:41:25;;;;;;;8.00;2.60;;;;;;;21.69;73.20;98329.61;25058;1315;3052806;-62
2022/09/15 11:44:13;;;;;;;7.90;2.90;;;;;;;21.60;73.10;98324.65;25063;1315;3056067;-61
2022/09/15 11:46:47;;;;;;;11.00;4.20;;;;;;;21.40;73.27;98324.60;25008;1315;3056811;-62
2022/09/15 11:49:19;;;;;;;14.50;4.40;;;;;;;21.08;74.76;98317.82;25066;1315;3049662;-63
2022/09/15 11:51:51;;;;;;;10.10;4.10;;;;;;;20.90;75.26;98313.27;25131;1314;3028473;-61
2022/09/15 11:54:35;;;;;;;6.70;2.30;;;;;;;20.81;75.73;98304.05;25070;1315;3026080;-62
2022/09/15 11:57:04;;;;;;;8.00;3.10;;;;;;;21.39;74.57;98294.77;25029;1315;3070171;-65
2022/09/15 11:59:48;;;;;;;8.20;3.40;;;;;;;21.74;73.35;98290.94;25065;1318;3026427;-63
2022/09/15 12:02:20;;;;;;;;;;;;;;;21.65;73.53;98289.41;25077;1316;3051247;-63
2022/09/15 12:05:14;;;;;;;4.50;2.70;;;;;;;21.42;74.71;98284.42;25103;1315;3026079;-60
2022/09/15 12:07:57;;;;;;;7.60;3.50;;;;;;;21.17;75.39;98287.19;25087;1315;3052025;-64
2022/09/15 12:10:40;;;;;;;6.40;3.90;;;;;;;20.96;76.26;98281.06;25030;1316;3053405;-61
2022/09/15 12:13:18;;;;;;;6.50;2.30;;;;;;;20.84;77.32;98280.74;25020;1315;3054929;-61
2022/09/15 12:15:49;;;;;;;8.40;3.60;;;;;;;21.37;76.25;98266.58;24978;1316;3057169;-61
2022/09/15 12:18:52;;;;;;;8.30;3.70;;;;;;;21.62;75.01;98261.67;25059;1315;3026735;-61
2022/09/15 12:21:35;;;;;;;7.80;3.40;;;;;;;21.58;74.53;98259.70;25056;1315;3055642;-65
2022/09/15 12:24:15;;;;;;;7.40;4.00;;;;;;;21.40;74.81;98251.61;25041;1318;3055540;-65
2022/09/15 12:26:45;;;;;;;13.50;4.40;;;;;;;21.18;75.44;98250.55;25064;1315;3071462;-63
2022/09/15 12:29:20;;;;;;;9.30;2.80;;;;;;;20.97;76.72;98251.86;25052;1318;3026444;-62
2022/09/15 12:32:28;;;;;;;11.80;4.00;;;;;;;21.52;74.87;98250.78;25072;1318;3052808;-66
2022/09/15 12:35:00;;;;;;;13.30;4.10;;;;;;;21.75;73.50;98252.90;25003;1318;3055336;-66
2022/09/15 12:37:38;;;;;;;15.20;4.70;;;;;;;21.69;73.42;98240.34;25109;1316;3026377;-63
2022/09/15 12:40:40;;;;;;;13.20;5.60;;;;;;;21.40;74.42;98243.88;25079;1315;3052352;-63
2022/09/15 12:43:10;;;;;;;12.00;5.90;;;;;;;21.09;76.22;98247.88;25112;1315;3052731;-66
2022/09/15 12:45:40;;;;;;;15.60;4.20;;;;;;;20.86;76.53;98245.55;25057;1315;3026235;-63
2022/09/15 12:48:11;;;;;;;15.50;5.80;;;;;;;21.25;75.29;98245.14;25047;1315;3026455;-63
2022/09/15 12:50:41;;;;;;;16.30;6.20;;;;;;;21.46;74.37;98239.95;25050;1315;3027277;-66
2022/09/15 12:53:25;;;;;;;14.60;6.50;;;;;;;21.36;74.66;98235.66;25116;1315;3026839;-62
2022/09/15 12:55:58;;;;;;;13.90;5.90;;;;;;;21.36;74.52;98227.09;25108;1315;3052863;-63
2022/09/15 12:58:35;;;;;;;20.50;7.60;;;;;;;21.16;75.23;98227.31;25162;1315;3057401;-60
2022/09/15 13:01:28;;;;;;;21.00;6.80;;;;;;;20.95;75.97;98228.27;25073;1315;3050495;-65
2022/09/15 13:03:58;;;;;;;18.60;5.10;;;;;;;20.82;77.20;98229.21;25013;1318;3052834;-60
2022/09/15 13:06:34;;;;;;;13.70;5.30;;;;;;;21.47;74.58;98215.49;25064;1318;3026725;-59
2022/09/15 13:09:26;;;;;;;10.60;5.00;;;;;;;21.73;73.14;98210.40;25021;1315;3071137;-63
2022/09/15 13:11:56;;;;;;;14.80;5.00;;;;;;;21.69;73.36;98208.04;25118;1315;3053195;-63
2022/09/15 13:14:40;;;;;;;12.00;4.60;;;;;;;21.66;73.15;98209.53;25052;1315;3026586;-64
2022/09/15 13:17:17;;;;;;;10.60;4.90;;;;;;;21.39;74.06;98213.45;24955;1318;3068856;-63
2022/09/15 13:19:47;;;;;;;12.90;5.10;;;;;;;21.18;74.77;98214.36;25019;1318;3049224;-64
2022/09/15 13:22:28;;;;;;;14.30;3.10;;;;;;;21.12;75.31;98217.43;25084;1315;3026567;-62
2022/09/15 13:25:12;;;;;;;9.00;3.70;;;;;;;21.72;73.48;98214.59;25076;1318;3052396;-62
2022/09/15 13:27:50;;;;;;;12.80;4.20;;;;;;;21.89;72.33;98217.30;25073;1315;3059560;-63
2022/09/15 13:30:37;;;;;;;9.40;3.50;;;;;;;21.82;71.93;98218.48;25040;1315;3052447;-60
2022/09/15 13:33:41;;;;;;;12.10;4.00;;;;;;;21.66;72.05;98223.44;25004;1315;3053457;-62
2022/09/15 13:36:59;;;;;;;7.70;3.50;;;;;;;21.48;71.99;98220.77;24986;1315;3054029;-64
2022/09/15 13:39:33;;;;;;;11.40;3.80;;;;;;;21.24;72.82;98217.98;25033;1316;3071663;-60